Time;durP1;ratioP1;P1;durP2;ratioP2;P2;SDS_P1;SDS_P2;PMS_P1;PMS_P2;Temp;Humidity;BMP_temperature;BMP_pressure;BME280_temperature;BME280_humidity;BME280_pressure;Samples;Min_cycle;Max_cycle;Signal;HPM_P1;HPM_P2
2022/10/15 00:02:12;;;;;;;;;;;;;;;;;;10494357;28;20453;-65
2022/10/15 00:07:14;;;;;;;;;;;;;;;;;;10496938;28;20042;-65
2022/10/15 00:12:16;;;;;;;;;;;;;;;;;;10495092;28;19939;-65
2022/10/15 00:17:18;;;;;;;;;;;;;;;;;;10496929;28;19978;-65
2022/10/15 00:22:20;;;;;;;;;;;;;;;;;;10496049;28;19924;-65
2022/10/15 00:27:22;;;;;;;;;;;;;;;;;;10495497;28;19928;-65
2022/10/15 00:32:24;;;;;;;;;;;;;;;;;;10495890;28;19925;-65
2022/10/15 00:37:27;;;;;;;;;;;;;;;;;;10502842;28;19932;-65
2022/10/15 00:42:29;;;;;;;;;;;;;;;;;;10502596;28;19929;-65
2022/10/15 00:47:31;;;;;;;;;;;;;;;;;;10502701;28;20427;-65
2022/10/15 00:52:33;;;;;;;;;;;;;;;;;;10502321;28;19924;-65
2022/10/15 00:57:35;;;;;;;;;;;;;;;;;;10503152;28;19970;-65
2022/10/15 01:02:37;;;;;;;;;;;;;;;;;;10501395;28;19928;-65
2022/10/15 01:07:39;;;;;;;;;;;;;;;;;;10502065;28;19928;-65
2022/10/15 01:12:41;;;;;;;;;;;;;;;;;;10502551;28;19970;-65
2022/10/15 01:17:43;;;;;;;;;;;;;;;;;;10521621;28;20371;-65
2022/10/15 01:22:45;;;;;;;;;;;;;;;;;;10540665;28;19927;-65
2022/10/15 01:27:47;;;;;;;;;;;;;;;;;;10515083;28;19953;-65
2022/10/15 01:32:49;;;;;;;;;;;;;;;;;;10508683;28;19924;-65
2022/10/15 01:37:51;;;;;;;;;;;;;;;;;;10534479;28;19928;-65
2022/10/15 01:42:53;;;;;;;;;;;;;;;;;;10521524;28;19969;-66
2022/10/15 01:47:55;;;;;;;;;;;;;;;;;;10520885;28;19924;-65
2022/10/15 01:52:57;;;;;;;;;;;;;;;;;;10541481;28;19933;-65
2022/10/15 01:57:59;;;;;;;;;;;;;;;;;;10539374;28;20337;-65
2022/10/15 02:03:01;;;;;;;;;;;;;;;;;;10540775;28;19928;-65
2022/10/15 02:08:03;;;;;;;;;;;;;;;;;;10542095;28;19970;-65
2022/10/15 02:13:05;;;;;;;;;;;;;;;;;;10541433;28;19969;-65
2022/10/15 02:18:07;;;;;;;;;;;;;;;;;;10540189;28;19981;-65
2022/10/15 02:23:09;;;;;;;;;;;;;;;;;;10523937;28;19932;-65
2022/10/15 02:28:12;;;;;;;;;;;;;;;;;;10522344;28;20333;-65
2022/10/15 02:33:14;;;;;;;;;;;;;;;;;;10529563;28;19951;-65
2022/10/15 02:38:16;;;;;;;;;;;;;;;;;;10537480;28;19924;-65
2022/10/15 02:43:18;;;;;;;;;;;;;;;;;;10534256;28;19932;-65
2022/10/15 02:48:20;;;;;;;;;;;;;;;;;;10540181;28;19993;-65
2022/10/15 02:53:23;;;;;;;;;;;;;;;;;;10537046;28;19924;-65
2022/10/15 02:58:25;;;;;;;;;;;;;;;;;;10522538;28;19924;-65
2022/10/15 03:03:27;;;;;;;;;;;;;;;;;;10538741;28;20328;-65
2022/10/15 03:08:29;;;;;;;;;;;;;;;;;;10538286;28;19974;-65
2022/10/15 03:13:31;;;;;;;;;;;;;;;;;;10539544;28;19950;-65
2022/10/15 03:18:33;;;;;;;;;;;;;;;;;;10538222;28;19924;-65
2022/10/15 03:23:37;;;;;;;;;;;;;;;;;;10520836;28;20406;-65
2022/10/15 03:28:39;;;;;;;;;;;;;;;;;;10521150;28;19924;-65
2022/10/15 03:33:41;;;;;;;;;;;;;;;;;;10527952;28;19931;-65
2022/10/15 03:38:44;;;;;;;;;;;;;;;;;;10529102;28;20420;-65
2022/10/15 03:43:46;;;;;;;;;;;;;;;;;;10536896;28;19970;-65
2022/10/15 03:48:48;;;;;;;;;;;;;;;;;;10537890;28;19928;-65
2022/10/15 03:53:50;;;;;;;;;;;;;;;;;;10498031;28;19929;-65
2022/10/15 03:58:52;;;;;;;;;;;;;;;;;;10514634;28;19997;-65
2022/10/15 04:03:54;;;;;;;;;;;;;;;;;;10526801;28;19925;-65
2022/10/15 04:08:56;;;;;;;;;;;;;;;;;;10533094;28;19931;-65
2022/10/15 04:13:58;;;;;;;;;;;;;;;;;;10546616;28;19981;-65
2022/10/15 04:19:00;;;;;;;;;;;;;;;;;;10544072;28;19978;-65
2022/10/15 04:24:02;;;;;;;;;;;;;;;;;;10534292;28;19925;-62
2022/10/15 04:29:04;;;;;;;;;;;;;;;;;;10517002;28;20340;-63
2022/10/15 04:34:06;;;;;;;;;;;;;;;;;;10541933;28;19927;-62
2022/10/15 04:39:08;;;;;;;;;;;;;;;;;;10512341;28;20448;-63
2022/10/15 04:44:13;;;;;;;;;;;;;;;;;;10532236;28;19931;-63
2022/10/15 04:49:15;;;;;;;;;;;;;;;;;;10529926;28;19931;-62
2022/10/15 04:54:17;;;;;;;;;;;;;;;;;;10538685;28;19924;-63
2022/10/15 04:59:19;;;;;;;;;;;;;;;;;;10512700;28;20022;-63
2022/10/15 05:04:21;;;;;;;;;;;;;;;;;;10537939;28;19939;-62
2022/10/15 05:09:23;;;;;;;;;;;;;;;;;;10512059;28;19925;-62
2022/10/15 05:14:25;;;;;;;;;;;;;;;;;;10545478;28;19924;-62
2022/10/15 05:19:27;;;;;;;;;;;;;;;;;;10537749;28;19928;-62
2022/10/15 05:24:29;;;;;;;;;;;;;;;;;;10542925;28;19924;-63
2022/10/15 05:29:31;;;;;;;;;;;;;;;;;;10543002;28;19924;-63
2022/10/15 05:34:33;;;;;;;;;;;;;;;;;;10524449;28;20452;-63
2022/10/15 05:39:36;;;;;;;;;;;;;;;;;;10541667;28;19993;-63
2022/10/15 05:44:38;;;;;;;;;;;;;;;;;;10539588;28;20132;-63
2022/10/15 05:49:40;;;;;;;;;;;;;;;;;;10542757;28;19928;-62
2022/10/15 05:54:42;;;;;;;;;;;;;;;;;;10541032;28;19925;-62
2022/10/15 05:59:44;;;;;;;;;;;;;;;;;;10542310;28;19924;-63
2022/10/15 06:04:46;;;;;;;;;;;;;;;;;;10539927;28;19928;-62
2022/10/15 06:09:48;;;;;;;;;;;;;;;;;;10539835;28;20395;-63
2022/10/15 06:14:50;;;;;;;;;;;;;;;;;;10541893;28;19924;-62
2022/10/15 06:19:52;;;;;;;;;;;;;;;;;;10541158;28;19924;-63
2022/10/15 06:24:55;;;;;;;;;;;;;;;;;;10539607;28;19924;-62
2022/10/15 06:29:57;;;;;;;;;;;;;;;;;;10541730;28;20424;-63
2022/10/15 06:34:59;;;;;;;;;;;;;;;;;;10539750;28;19928;-62
2022/10/15 06:40:01;;;;;;;;;;;;;;;;;;10538808;28;19977;-62
2022/10/15 06:45:03;;;;;;;;;;;;;;;;;;10541100;28;19924;-62
2022/10/15 06:50:06;;;;;;;;;;;;;;;;;;10540872;28;20379;-62
2022/10/15 06:55:08;;;;;;;;;;;;;;;;;;10539773;28;19928;-63
2022/10/15 07:00:10;;;;;;;;;;;;;;;;;;10539897;28;19925;-62
2022/10/15 07:05:12;;;;;;;;;;;;;;;;;;10519732;28;19928;-62
2022/10/15 07:10:14;;;;;;;;;;;;;;;;;;10536453;28;20337;-63
2022/10/15 07:15:16;;;;;;;;;;;;;;;;;;10541499;28;19928;-63
2022/10/15 07:20:19;;;;;;;;;;;;;;;;;;10540639;28;19978;-62
2022/10/15 07:25:24;;;;;;;;;;;;;;;;;;10520869;28;19931;-63
2022/10/15 07:30:26;;;;;;;;;;;;;;;;;;10540308;28;19985;-63
2022/10/15 07:35:28;;;;;;;;;;;;;;;;;;10539550;28;19969;-63
2022/10/15 07:40:30;;;;;;;;;;;;;;;;;;10539980;28;19924;-63
2022/10/15 07:45:32;;;;;;;;;;;;;;;;;;10538759;28;19946;-63
2022/10/15 07:50:34;;;;;;;;;;;;;;;;;;10540516;28;19978;-63
2022/10/15 07:55:38;;;;;;;;;;;;;;;;;;10539540;28;19924;-63
2022/10/15 08:00:40;;;;;;;;;;;;;;;;;;10539728;28;19928;-63
2022/10/15 08:05:42;;;;;;;;;;;;;;;;;;10539497;28;20325;-63
2022/10/15 08:10:44;;;;;;;;;;;;;;;;;;10539315;28;19924;-63
2022/10/15 08:15:46;;;;;;;;;;;;;;;;;;10538832;28;19928;-63
2022/10/15 08:20:48;;;;;;;;;;;;;;;;;;10539903;28;19982;-63
2022/10/15 08:25:50;;;;;;;;;;;;;;;;;;10514967;28;20336;-63
2022/10/15 08:30:52;;;;;;;;;;;;;;;;;;10539771;28;19924;-70
2022/10/15 08:35:54;;;;;;;;;;;;;;;;;;10538875;28;19924;-70
2022/10/15 08:40:57;;;;;;;;;;;;;;;;;;10539505;28;19928;-70
2022/10/15 08:45:59;;;;;;;;;;;;;;;;;;10538726;28;20400;-70
2022/10/15 08:51:01;;;;;;;;;;;;;;;;;;10537754;28;19924;-70
2022/10/15 08:56:03;;;;;;;;;;;;;;;;;;10541519;28;19924;-70
2022/10/15 09:01:05;;;;;;;;;;;;;;;;;;10545981;28;19924;-71
2022/10/15 09:06:07;;;;;;;;;;;;;;;;;;10546401;28;19974;-71
2022/10/15 09:11:09;;;;;;;;;;;;;;;;;;10544634;28;20440;-71
2022/10/15 09:16:11;;;;;;;;;;;;;;;;;;10526179;28;20291;-71
2022/10/15 09:21:13;;;;;;;;;;;;;;;;;;10545857;28;19970;-70
2022/10/15 09:26:15;;;;;;;;;;;;;;;;;;10544416;28;19925;-71
2022/10/15 09:31:18;;;;;;;;;;;;;;;;;;10544877;28;19950;-71
2022/10/15 09:36:20;;;;;;;;;;;;;;;;;;10542778;28;19932;-71
2022/10/15 09:41:22;;;;;;;;;;;;;;;;;;10545076;28;19969;-71
2022/10/15 09:46:24;;;;;;;;;;;;;;;;;;10526107;28;20375;-71
2022/10/15 09:51:26;;;;;;;;;;;;;;;;;;10541513;28;19924;-71
2022/10/15 09:56:28;;;;;;;;;;;;;;;;;;10543298;28;19928;-71
2022/10/15 10:01:30;;;;;;;;;;;;;;;;;;10544389;28;19973;-71
2022/10/15 10:06:32;;;;;;;;;;;;;;;;;;10526044;28;19924;-70
2022/10/15 10:11:34;;;;;;;;;;;;;;;;;;10523626;28;19970;-66
2022/10/15 10:16:36;;;;;;;;;;;;;;;;;;10542314;28;19927;-62
2022/10/15 10:21:40;;;;;;;;;;;;;;;;;;10542227;28;19924;-63
2022/10/15 10:26:42;;;;;;;;;;;;;;;;;;10542550;28;20384;-63
2022/10/15 10:31:45;;;;;;;;;;;;;;;;;;10540985;28;19924;-63
2022/10/15 10:36:47;;;;;;;;;;;;;;;;;;10542916;28;19969;-63
2022/10/15 10:41:49;;;;;;;;;;;;;;;;;;10542057;28;20371;-63
2022/10/15 10:46:51;;;;;;;;;;;;;;;;;;10523190;28;19926;-63
2022/10/15 10:51:53;;;;;;;;;;;;;;;;;;10542162;28;19924;-63
2022/10/15 10:56:55;;;;;;;;;;;;;;;;;;10541460;28;19924;-63
2022/10/15 11:01:57;;;;;;;;;;;;;;;;;;10541905;28;19977;-63
2022/10/15 11:06:59;;;;;;;;;;;;;;;;;;10541525;28;19973;-63
2022/10/15 11:12:02;;;;;;;;;;;;;;;;;;10541619;28;19950;-70
2022/10/15 11:17:04;;;;;;;;;;;;;;;;;;10540393;28;19973;-63
2022/10/15 11:22:06;;;;;;;;;;;;;;;;;;10540685;28;19947;-63
2022/10/15 11:27:08;;;;;;;;;;;;;;;;;;10540356;28;19924;-63
2022/10/15 11:32:12;;;;;;;;;;;;;;;;;;10516802;22;19932;-64
2022/10/15 11:37:17;;;;;;;;;;;;;;;;;;10457691;28;19931;-65
2022/10/15 11:42:19;;;;;;;;;;;;;;;;;;10457527;28;19925;-65
2022/10/15 11:47:22;;;;;;;;;;;;;;;;;;10456754;28;19924;-64
2022/10/15 11:52:24;;;;;;;;;;;;;;;;;;10457288;28;19925;-64
2022/10/15 11:57:27;;;;;;;;;;;;;;;;;;10457206;28;19925;-70
2022/10/15 12:02:29;;;;;;;;;;;;;;;;;;10457049;28;19971;-64
2022/10/15 12:07:31;;;;;;;;;;;;;;;;;;10454953;28;19929;-73
2022/10/15 12:12:33;;;;;;;;;;;;;;;;;;10456240;28;20371;-73
2022/10/15 12:17:35;;;;;;;;;;;;;;;;;;10455746;28;19925;-73
2022/10/15 12:22:37;;;;;;;;;;;;;;;;;;10467763;28;20379;-69
2022/10/15 12:27:39;;;;;;;;;;;;;;;;;;10437090;28;19929;-68
2022/10/15 12:32:41;;;;;;;;;;;;;;;;;;10447351;28;19928;-68
2022/10/15 12:37:43;;;;;;;;;;;;;;;;;;10463443;28;19929;-69
2022/10/15 12:42:45;;;;;;;;;;;;;;;;;;10463528;28;19975;-68
2022/10/15 12:47:48;;;;;;;;;;;;;;;;;;10462594;28;20430;-68
2022/10/15 12:52:50;;;;;;;;;;;;;;;;;;10463321;28;19970;-68
2022/10/15 12:57:52;;;;;;;;;;;;;;;;;;10463470;28;19925;-68
2022/10/15 13:02:54;;;;;;;;;;;;;;;;;;10462775;28;20394;-68
2022/10/15 13:07:56;;;;;;;;;;;;;;;;;;10463112;28;19972;-69
2022/10/15 13:12:58;;;;;;;;;;;;;;;;;;10462983;28;19929;-68
2022/10/15 13:18:00;;;;;;;;;;;;;;;;;;10462185;28;20395;-68
2022/10/15 13:23:02;;;;;;;;;;;;;;;;;;10462665;28;19974;-68
2022/10/15 13:28:08;;;;;;;;;;;;;;;;;;10461803;28;20405;-68
2022/10/15 13:33:15;;;;;;;;;;;;;;;;;;10465820;28;19924;-68
2022/10/15 13:38:17;;;;;;;;;;;;;;;;;;10462083;28;20432;-68
2022/10/15 13:43:19;;;;;;;;;;;;;;;;;;10461464;28;19971;-69
2022/10/15 13:48:21;;;;;;;;;;;;;;;;;;10443313;28;20453;-69
2022/10/15 13:53:24;;;;;;;;;;;;;;;;;;10461026;28;20256;-69
2022/10/15 13:58:26;;;;;;;;;;;;;;;;;;10461234;28;19925;-69
2022/10/15 14:03:29;;;;;;;;;;;;;;;;;;10460440;28;20486;-69
2022/10/15 14:08:31;;;;;;;;;;;;;;;;;;10460754;28;19936;-69
2022/10/15 14:13:34;;;;;;;;;;;;;;;;;;10458678;28;19924;-69
2022/10/15 14:18:36;;;;;;;;;;;;;;;;;;10460373;28;19996;-74
2022/10/15 14:23:38;;;;;;;;;;;;;;;;;;10460295;28;19929;-70
2022/10/15 14:28:40;;;;;;;;;;;;;;;;;;10458886;28;19979;-71
2022/10/15 14:33:42;;;;;;;;;;;;;;;;;;10459185;28;19924;-72
2022/10/15 14:38:44;;;;;;;;;;;;;;;;;;10458244;28;20327;-72
2022/10/15 14:43:46;;;;;;;;;;;;;;;;;;10474026;28;19990;-72
2022/10/15 14:48:48;;;;;;;;;;;;;;;;;;10458977;28;19974;-71
2022/10/15 14:53:50;;;;;;;;;;;;;;;;;;10457851;28;19947;-69
2022/10/15 14:58:52;;;;;;;;;;;;;;;;;;10490637;28;19924;-70
2022/10/15 15:03:55;;;;;;;;;;;;;;;;;;10477283;28;19994;-70
2022/10/15 15:08:57;;;;;;;;;;;;;;;;;;10457807;28;20334;-70
2022/10/15 15:14:00;;;;;;;;;;;;;;;;;;10458351;28;19975;-70
2022/10/15 15:19:02;;;;;;;;;;;;;;;;;;10458013;28;19983;-69
2022/10/15 15:24:04;;;;;;;;;;;;;;;;;;10458042;28;19924;-69
2022/10/15 15:29:06;;;;;;;;;;;;;;;;;;10457197;28;19971;-70
2022/10/15 15:34:13;;;;;;;;;;;;;;;;;;10472347;28;19970;-70
2022/10/15 15:39:15;;;;;;;;;;;;;;;;;;10489212;28;19970;-70
2022/10/15 15:44:17;;;;;;;;;;;;;;;;;;10456812;28;20441;-70
2022/10/15 15:49:20;;;;;;;;;;;;;;;;;;10456692;28;20252;-70
2022/10/15 15:54:22;;;;;;;;;;;;;;;;;;10457232;28;19980;-70
2022/10/15 15:59:24;;;;;;;;;;;;;;;;;;10457168;28;19925;-70
2022/10/15 16:04:26;;;;;;;;;;;;;;;;;;10457429;28;19932;-70
2022/10/15 16:09:28;;;;;;;;;;;;;;;;;;10465484;28;19951;-70
2022/10/15 16:14:31;;;;;;;;;;;;;;;;;;10480753;28;19924;-70
2022/10/15 16:19:33;;;;;;;;;;;;;;;;;;10506584;28;19925;-71
2022/10/15 16:24:35;;;;;;;;;;;;;;;;;;10488625;28;19924;-70
2022/10/15 16:29:37;;;;;;;;;;;;;;;;;;10501193;28;19929;-70
2022/10/15 16:34:39;;;;;;;;;;;;;;;;;;10461324;28;19928;-70
2022/10/15 16:39:41;;;;;;;;;;;;;;;;;;10464413;28;20089;-70
2022/10/15 16:44:44;;;;;;;;;;;;;;;;;;10430763;28;19925;-70
2022/10/15 16:49:46;;;;;;;;;;;;;;;;;;10449763;28;19929;-70
2022/10/15 16:54:48;;;;;;;;;;;;;;;;;;10463110;28;20331;-70
2022/10/15 16:59:50;;;;;;;;;;;;;;;;;;10462817;28;19924;-70
2022/10/15 17:04:52;;;;;;;;;;;;;;;;;;10462399;28;20380;-70
2022/10/15 17:09:55;;;;;;;;;;;;;;;;;;10463035;28;19979;-70
2022/10/15 17:14:57;;;;;;;;;;;;;;;;;;10462199;28;19925;-69
2022/10/15 17:19:59;;;;;;;;;;;;;;;;;;10462082;28;20372;-69
2022/10/15 17:25:01;;;;;;;;;;;;;;;;;;10462002;28;20486;-69
2022/10/15 17:30:03;;;;;;;;;;;;;;;;;;10462342;28;19924;-69
2022/10/15 17:35:06;;;;;;;;;;;;;;;;;;10461046;28;19924;-69
2022/10/15 17:40:08;;;;;;;;;;;;;;;;;;10461997;28;19975;-69
2022/10/15 17:45:10;;;;;;;;;;;;;;;;;;10461223;28;20311;-70
2022/10/15 17:50:13;;;;;;;;;;;;;;;;;;10460878;28;19925;-69
2022/10/15 17:55:16;;;;;;;;;;;;;;;;;;10461435;28;19979;-69
2022/10/15 18:00:18;;;;;;;;;;;;;;;;;;10460178;28;19932;-68
2022/10/15 18:05:20;;;;;;;;;;;;;;;;;;10461049;28;19924;-68
2022/10/15 18:10:22;;;;;;;;;;;;;;;;;;10460182;28;20026;-68
2022/10/15 18:15:24;;;;;;;;;;;;;;;;;;10460666;28;19937;-68
2022/10/15 18:20:26;;;;;;;;;;;;;;;;;;10460461;28;19929;-68
2022/10/15 18:25:29;;;;;;;;;;;;;;;;;;10460248;28;19925;-68
2022/10/15 18:30:31;;;;;;;;;;;;;;;;;;10458792;28;20397;-61
2022/10/15 18:35:33;;;;;;;;;;;;;;;;;;10459120;28;20321;-62
2022/10/15 18:40:36;;;;;;;;;;;;;;;;;;10441160;28;20141;-62
2022/10/15 18:45:43;;;;;;;;;;;;;;;;;;10459382;28;19933;-62
2022/10/15 18:50:45;;;;;;;;;;;;;;;;;;10458669;28;19929;-62
2022/10/15 18:55:52;;;;;;;;;;;;;;;;;;10459133;28;19929;-62
2022/10/15 19:00:54;;;;;;;;;;;;;;;;;;10458283;28;19947;-62
2022/10/15 19:05:57;;;;;;;;;;;;;;;;;;10458648;28;19925;-62
2022/10/15 19:10:59;;;;;;;;;;;;;;;;;;10458505;28;19925;-62
2022/10/15 19:16:01;;;;;;;;;;;;;;;;;;10457747;28;20364;-61
2022/10/15 19:21:03;;;;;;;;;;;;;;;;;;10457560;28;20328;-62
2022/10/15 19:26:05;;;;;;;;;;;;;;;;;;10457938;28;19924;-62
2022/10/15 19:31:07;;;;;;;;;;;;;;;;;;10457130;28;19924;-61
2022/10/15 19:36:09;;;;;;;;;;;;;;;;;;10457156;28;19924;-62
2022/10/15 19:41:11;;;;;;;;;;;;;;;;;;10457301;28;19932;-62
2022/10/15 19:46:13;;;;;;;;;;;;;;;;;;10457312;28;19928;-61
2022/10/15 19:51:16;;;;;;;;;;;;;;;;;;10456814;28;19925;-61
2022/10/15 19:56:18;;;;;;;;;;;;;;;;;;10456624;28;20280;-62
2022/10/15 20:01:20;;;;;;;;;;;;;;;;;;10456565;28;19929;-62
2022/10/15 20:06:22;;;;;;;;;;;;;;;;;;10456960;28;19929;-61
2022/10/15 20:11:24;;;;;;;;;;;;;;;;;;10456386;28;20319;-61
2022/10/15 20:16:26;;;;;;;;;;;;;;;;;;10456247;28;20418;-61
2022/10/15 20:21:33;;;;;;;;;;;;;;;;;;10456287;28;20416;-61
2022/10/15 20:26:35;;;;;;;;;;;;;;;;;;10456927;28;19925;-61
2022/10/15 20:31:37;;;;;;;;;;;;;;;;;;10456385;28;20047;-61
2022/10/15 20:36:40;;;;;;;;;;;;;;;;;;10456563;28;19928;-61
2022/10/15 20:41:42;;;;;;;;;;;;;;;;;;10456139;28;20446;-61
2022/10/15 20:46:44;;;;;;;;;;;;;;;;;;10456272;28;19925;-61
2022/10/15 20:51:46;;;;;;;;;;;;;;;;;;10459305;28;19925;-61
2022/10/15 20:56:48;;;;;;;;;;;;;;;;;;10463188;28;20379;-62
2022/10/15 21:01:50;;;;;;;;;;;;;;;;;;10463655;28;19929;-61
2022/10/15 21:06:52;;;;;;;;;;;;;;;;;;10463354;28;19935;-62
2022/10/15 21:11:54;;;;;;;;;;;;;;;;;;10463253;28;19974;-61
2022/10/15 21:16:56;;;;;;;;;;;;;;;;;;10463031;28;19970;-62
2022/10/15 21:21:59;;;;;;;;;;;;;;;;;;10462216;28;19924;-61
2022/10/15 21:27:01;;;;;;;;;;;;;;;;;;10462503;28;19925;-61
2022/10/15 21:32:03;;;;;;;;;;;;;;;;;;10461639;28;20342;-61
2022/10/15 21:37:05;;;;;;;;;;;;;;;;;;10461625;28;19925;-61
2022/10/15 21:42:07;;;;;;;;;;;;;;;;;;10461401;28;19925;-61
2022/10/15 21:47:09;;;;;;;;;;;;;;;;;;10461770;28;19929;-61
2022/10/15 21:52:15;;;;;;;;;;;;;;;;;;10457467;28;19935;-61
2022/10/15 21:57:17;;;;;;;;;;;;;;;;;;10461436;28;19974;-61
2022/10/15 22:02:19;;;;;;;;;;;;;;;;;;10460959;28;19924;-61
2022/10/15 22:07:21;;;;;;;;;;;;;;;;;;10459467;28;19924;-61
2022/10/15 22:12:23;;;;;;;;;;;;;;;;;;10460218;28;19982;-61
2022/10/15 22:17:25;;;;;;;;;;;;;;;;;;10459771;28;19929;-61
2022/10/15 22:22:28;;;;;;;;;;;;;;;;;;10460468;28;19971;-61
2022/10/15 22:27:30;;;;;;;;;;;;;;;;;;10459565;28;19995;-61
2022/10/15 22:32:32;;;;;;;;;;;;;;;;;;10457887;28;19979;-61
2022/10/15 22:37:34;;;;;;;;;;;;;;;;;;10459725;28;19979;-61
2022/10/15 22:42:36;;;;;;;;;;;;;;;;;;10459660;28;19929;-61
2022/10/15 22:47:38;;;;;;;;;;;;;;;;;;10457772;28;19925;-61
2022/10/15 22:52:40;;;;;;;;;;;;;;;;;;10458667;28;19925;-61
2022/10/15 22:57:42;;;;;;;;;;;;;;;;;;10459072;28;19929;-61
2022/10/15 23:02:44;;;;;;;;;;;;;;;;;;10457267;28;19925;-61
2022/10/15 23:07:46;;;;;;;;;;;;;;;;;;10457955;28;20437;-60
2022/10/15 23:12:48;;;;;;;;;;;;;;;;;;10457250;28;19925;-61
2022/10/15 23:17:50;;;;;;;;;;;;;;;;;;10457585;28;19929;-62
2022/10/15 23:22:52;;;;;;;;;;;;;;;;;;10457555;28;20380;-61
2022/10/15 23:27:54;;;;;;;;;;;;;;;;;;10457854;28;19951;-61
2022/10/15 23:32:56;;;;;;;;;;;;;;;;;;10452665;28;20322;-61
2022/10/15 23:37:58;;;;;;;;;;;;;;;;;;10457710;28;19925;-61
2022/10/15 23:43:00;;;;;;;;;;;;;;;;;;10457548;28;19925;-62
2022/10/15 23:48:02;;;;;;;;;;;;;;;;;;10485313;22;19978;-61
2022/10/15 23:53:04;;;;;;;;;;;;;;;;;;10498890;28;19978;-62
2022/10/15 23:58:06;;;;;;;;;;;;;;;;;;10497270;28;20383;-62
